aviador You're here:

KPRN Decoded Metar

in _UNIDENTIFIED
Report Time2018-07-17 00:56:00
UTC Time2018-07-17 01:52:10
Flight Rules vfr VFR
Wind250° at 05 kt
W.Decomp.*RWY 32: 1.9 kt HW 4.6 kt LCW
W.Rank250° ranks 30
Current wind is below 250° avg. (5.8)
Visibility9999 m
Phenomena:N/A
Clouds:Few 110 Hf
Expected CloudBase > 1,600 ft AGL from Temp-Dew spread
CeilingNone
Temp26°C (ISA +12)
Dew Point22°C (79% RH)
QNH1016 hPa
Density Alt2,077 ft
Elevation453 ft
Report Wrong Elevation
Raw Report
KPRN 170056Z AUTO 25005KT 10SM FEW110 26/22 A3001 RMK AO2 TSE27
SLP157 T02560217 $=

Extra information for KPRN:More info

Metar Taf Metar & Taf Last 4 Metars F.Rules Stats Wind Profile Meteogram Temp Stats Metar ALERT Operation Metar Decoded Social comments